sensor_id;sensor_type;location;lat;lon;timestamp;temperature;humidity
18225;DHT22;9237;48.590;8.854;2023-08-24T00:01:49;17.80;99.90
18225;DHT22;9237;48.590;8.854;2023-08-24T00:04:16;17.60;99.90
18225;DHT22;9237;48.590;8.854;2023-08-24T00:06:43;17.50;99.90
18225;DHT22;9237;48.590;8.854;2023-08-24T00:09:09;17.60;99.90
18225;DHT22;9237;48.590;8.854;2023-08-24T00:11:37;17.60;99.90
18225;DHT22;9237;48.590;8.854;2023-08-24T00:14:03;17.70;99.90
18225;DHT22;9237;48.590;8.854;2023-08-24T00:16:31;17.70;99.90
18225;DHT22;9237;48.590;8.854;2023-08-24T00:18:58;17.50;99.90
18225;DHT22;9237;48.590;8.854;2023-08-24T00:21:25;17.30;99.90
18225;DHT22;9237;48.590;8.854;2023-08-24T00:23:52;17.60;99.90
18225;DHT22;9237;48.590;8.854;2023-08-24T00:26:19;17.50;99.90
18225;DHT22;9237;48.590;8.854;2023-08-24T00:28:46;17.50;99.90
18225;DHT22;9237;48.590;8.854;2023-08-24T00:31:14;17.40;99.90
18225;DHT22;9237;48.590;8.854;2023-08-24T00:33:43;17.30;99.90
18225;DHT22;9237;48.590;8.854;2023-08-24T00:36:10;17.30;99.90
18225;DHT22;9237;48.590;8.854;2023-08-24T00:38:36;17.20;99.90
18225;DHT22;9237;48.590;8.854;2023-08-24T00:41:03;17.20;99.90
18225;DHT22;9237;48.590;8.854;2023-08-24T00:43:30;17.10;99.90
18225;DHT22;9237;48.590;8.854;2023-08-24T00:45:59;17.00;99.90
18225;DHT22;9237;48.590;8.854;2023-08-24T00:48:27;16.90;99.90
18225;DHT22;9237;48.590;8.854;2023-08-24T00:50:57;16.80;99.90
18225;DHT22;9237;48.590;8.854;2023-08-24T00:53:27;16.80;99.90
18225;DHT22;9237;48.590;8.854;2023-08-24T00:55:54;16.90;99.90
18225;DHT22;9237;48.590;8.854;2023-08-24T00:58:22;17.00;99.90
18225;DHT22;9237;48.590;8.854;2023-08-24T01:00:51;17.00;99.90
18225;DHT22;9237;48.590;8.854;2023-08-24T01:03:19;17.00;99.90
18225;DHT22;9237;48.590;8.854;2023-08-24T01:05:45;16.90;99.90
18225;DHT22;9237;48.590;8.854;2023-08-24T01:08:13;16.80;99.90
18225;DHT22;9237;48.590;8.854;2023-08-24T01:10:45;16.70;99.90
18225;DHT22;9237;48.590;8.854;2023-08-24T01:13:20;17.10;99.90
18225;DHT22;9237;48.590;8.854;2023-08-24T01:15:57;16.60;99.90
18225;DHT22;9237;48.590;8.854;2023-08-24T01:18:26;16.60;99.90
18225;DHT22;9237;48.590;8.854;2023-08-24T01:20:55;16.70;99.90
18225;DHT22;9237;48.590;8.854;2023-08-24T01:23:33;16.70;99.90
18225;DHT22;9237;48.590;8.854;2023-08-24T01:26:10;16.70;99.90
18225;DHT22;9237;48.590;8.854;2023-08-24T01:28:38;16.80;99.90
18225;DHT22;9237;48.590;8.854;2023-08-24T01:31:05;16.80;99.90
18225;DHT22;9237;48.590;8.854;2023-08-24T01:33:33;16.80;99.90
18225;DHT22;9237;48.590;8.854;2023-08-24T01:36:00;16.80;99.90
18225;DHT22;9237;48.590;8.854;2023-08-24T01:38:27;16.70;99.90
18225;DHT22;9237;48.590;8.854;2023-08-24T01:41:01;16.70;99.90
18225;DHT22;9237;48.590;8.854;2023-08-24T01:43:30;16.70;99.90
18225;DHT22;9237;48.590;8.854;2023-08-24T01:46:00;16.60;99.90
18225;DHT22;9237;48.590;8.854;2023-08-24T01:48:30;16.50;99.90
18225;DHT22;9237;48.590;8.854;2023-08-24T01:50:58;16.40;99.90
18225;DHT22;9237;48.590;8.854;2023-08-24T01:53:26;16.40;99.90
18225;DHT22;9237;48.590;8.854;2023-08-24T01:55:54;16.40;99.90
18225;DHT22;9237;48.590;8.854;2023-08-24T01:58:21;16.40;99.90
18225;DHT22;9237;48.590;8.854;2023-08-24T02:00:49;16.30;99.90
18225;DHT22;9237;48.590;8.854;2023-08-24T02:03:15;16.40;99.90
18225;DHT22;9237;48.590;8.854;2023-08-24T02:05:42;16.40;99.90
18225;DHT22;9237;48.590;8.854;2023-08-24T02:08:09;16.40;99.90
18225;DHT22;9237;48.590;8.854;2023-08-24T02:10:36;16.30;99.90
18225;DHT22;9237;48.590;8.854;2023-08-24T02:13:03;16.40;99.90
18225;DHT22;9237;48.590;8.854;2023-08-24T02:15:29;16.30;99.90
18225;DHT22;9237;48.590;8.854;2023-08-24T02:17:58;16.30;99.90
18225;DHT22;9237;48.590;8.854;2023-08-24T02:20:24;16.40;99.90
18225;DHT22;9237;48.590;8.854;2023-08-24T02:22:51;16.40;99.90
18225;DHT22;9237;48.590;8.854;2023-08-24T02:25:18;16.40;99.90
18225;DHT22;9237;48.590;8.854;2023-08-24T02:27:45;16.50;99.90
18225;DHT22;9237;48.590;8.854;2023-08-24T02:30:13;16.60;99.90
18225;DHT22;9237;48.590;8.854;2023-08-24T02:32:39;16.70;99.90
18225;DHT22;9237;48.590;8.854;2023-08-24T02:35:08;16.80;99.90
18225;DHT22;9237;48.590;8.854;2023-08-24T02:37:35;16.90;99.90
18225;DHT22;9237;48.590;8.854;2023-08-24T02:40:02;17.00;99.90
18225;DHT22;9237;48.590;8.854;2023-08-24T02:42:30;17.10;99.90
18225;DHT22;9237;48.590;8.854;2023-08-24T02:44:57;17.10;99.90
18225;DHT22;9237;48.590;8.854;2023-08-24T02:47:24;17.20;99.90
18225;DHT22;9237;48.590;8.854;2023-08-24T02:49:51;17.20;99.90
18225;DHT22;9237;48.590;8.854;2023-08-24T02:52:19;17.20;99.90
18225;DHT22;9237;48.590;8.854;2023-08-24T02:54:46;17.30;99.90
18225;DHT22;9237;48.590;8.854;2023-08-24T02:57:13;17.30;99.90
18225;DHT22;9237;48.590;8.854;2023-08-24T02:59:39;17.30;99.90
18225;DHT22;9237;48.590;8.854;2023-08-24T03:02:09;17.30;99.90
18225;DHT22;9237;48.590;8.854;2023-08-24T03:04:35;17.30;99.90
18225;DHT22;9237;48.590;8.854;2023-08-24T03:07:02;17.30;99.90
18225;DHT22;9237;48.590;8.854;2023-08-24T03:09:30;17.20;99.90
18225;DHT22;9237;48.590;8.854;2023-08-24T03:11:57;17.20;99.90
18225;DHT22;9237;48.590;8.854;2023-08-24T03:14:24;17.20;99.90
18225;DHT22;9237;48.590;8.854;2023-08-24T03:16:50;17.30;99.90
18225;DHT22;9237;48.590;8.854;2023-08-24T03:19:17;17.30;99.90
18225;DHT22;9237;48.590;8.854;2023-08-24T03:21:44;17.30;99.90
18225;DHT22;9237;48.590;8.854;2023-08-24T03:24:11;17.20;99.90
18225;DHT22;9237;48.590;8.854;2023-08-24T03:26:39;17.20;99.90
18225;DHT22;9237;48.590;8.854;2023-08-24T03:29:06;17.20;99.90
18225;DHT22;9237;48.590;8.854;2023-08-24T03:31:32;17.10;99.90
18225;DHT22;9237;48.590;8.854;2023-08-24T03:33:59;17.00;99.90
18225;DHT22;9237;48.590;8.854;2023-08-24T03:36:26;16.90;99.90
18225;DHT22;9237;48.590;8.854;2023-08-24T03:38:53;16.90;99.90
18225;DHT22;9237;48.590;8.854;2023-08-24T03:41:20;16.80;99.90
18225;DHT22;9237;48.590;8.854;2023-08-24T03:43:49;16.90;99.90
18225;DHT22;9237;48.590;8.854;2023-08-24T03:46:16;16.80;99.90
18225;DHT22;9237;48.590;8.854;2023-08-24T03:48:44;16.80;99.90
18225;DHT22;9237;48.590;8.854;2023-08-24T03:51:10;16.80;99.90
18225;DHT22;9237;48.590;8.854;2023-08-24T03:53:37;16.90;99.90
18225;DHT22;9237;48.590;8.854;2023-08-24T03:56:04;16.90;99.90
18225;DHT22;9237;48.590;8.854;2023-08-24T03:58:31;17.00;99.90
18225;DHT22;9237;48.590;8.854;2023-08-24T04:00:59;17.20;99.90
18225;DHT22;9237;48.590;8.854;2023-08-24T04:03:26;17.20;99.90
18225;DHT22;9237;48.590;8.854;2023-08-24T04:05:53;17.30;99.90
18225;DHT22;9237;48.590;8.854;2023-08-24T04:08:19;17.10;99.90
18225;DHT22;9237;48.590;8.854;2023-08-24T04:10:46;17.10;99.90
18225;DHT22;9237;48.590;8.854;2023-08-24T04:13:13;17.00;99.90
18225;DHT22;9237;48.590;8.854;2023-08-24T04:15:40;17.10;99.90
18225;DHT22;9237;48.590;8.854;2023-08-24T04:18:08;17.10;99.90
18225;DHT22;9237;48.590;8.854;2023-08-24T04:20:35;17.10;99.90
18225;DHT22;9237;48.590;8.854;2023-08-24T04:23:02;17.00;99.90
18225;DHT22;9237;48.590;8.854;2023-08-24T04:25:28;16.90;99.90
18225;DHT22;9237;48.590;8.854;2023-08-24T04:27:56;16.80;99.90
18225;DHT22;9237;48.590;8.854;2023-08-24T04:30:22;16.70;99.90
18225;DHT22;9237;48.590;8.854;2023-08-24T04:32:49;16.70;99.90
18225;DHT22;9237;48.590;8.854;2023-08-24T04:35:17;16.70;99.90
18225;DHT22;9237;48.590;8.854;2023-08-24T04:37:45;16.60;99.90
18225;DHT22;9237;48.590;8.854;2023-08-24T04:40:12;16.60;99.90
18225;DHT22;9237;48.590;8.854;2023-08-24T04:42:39;16.50;99.90
18225;DHT22;9237;48.590;8.854;2023-08-24T04:45:07;16.50;99.90
18225;DHT22;9237;48.590;8.854;2023-08-24T04:47:35;16.40;99.90
18225;DHT22;9237;48.590;8.854;2023-08-24T04:50:01;16.40;99.90
18225;DHT22;9237;48.590;8.854;2023-08-24T04:52:30;16.30;99.90
18225;DHT22;9237;48.590;8.854;2023-08-24T04:54:56;16.30;99.90
18225;DHT22;9237;48.590;8.854;2023-08-24T04:57:22;16.30;99.90
18225;DHT22;9237;48.590;8.854;2023-08-24T04:59:49;16.40;99.90
18225;DHT22;9237;48.590;8.854;2023-08-24T05:02:16;16.50;99.90
18225;DHT22;9237;48.590;8.854;2023-08-24T05:04:43;16.50;99.90
18225;DHT22;9237;48.590;8.854;2023-08-24T05:07:09;16.50;99.90
18225;DHT22;9237;48.590;8.854;2023-08-24T05:09:38;16.80;99.90
18225;DHT22;9237;48.590;8.854;2023-08-24T05:12:05;16.60;99.90
18225;DHT22;9237;48.590;8.854;2023-08-24T05:14:32;16.60;99.90
18225;DHT22;9237;48.590;8.854;2023-08-24T05:17:00;16.70;99.90
18225;DHT22;9237;48.590;8.854;2023-08-24T05:19:26;16.70;99.90
18225;DHT22;9237;48.590;8.854;2023-08-24T05:21:53;16.90;99.90
18225;DHT22;9237;48.590;8.854;2023-08-24T05:24:20;16.90;99.90
18225;DHT22;9237;48.590;8.854;2023-08-24T05:26:48;17.10;99.90
18225;DHT22;9237;48.590;8.854;2023-08-24T05:29:15;17.10;99.90
18225;DHT22;9237;48.590;8.854;2023-08-24T05:31:41;17.20;99.90
18225;DHT22;9237;48.590;8.854;2023-08-24T05:34:08;17.30;99.90
18225;DHT22;9237;48.590;8.854;2023-08-24T05:36:35;17.30;99.90
18225;DHT22;9237;48.590;8.854;2023-08-24T05:39:02;17.40;99.90
18225;DHT22;9237;48.590;8.854;2023-08-24T05:41:29;17.50;99.90
18225;DHT22;9237;48.590;8.854;2023-08-24T05:43:57;17.60;99.90
18225;DHT22;9237;48.590;8.854;2023-08-24T05:46:23;17.60;99.90
18225;DHT22;9237;48.590;8.854;2023-08-24T05:48:50;17.60;99.90
18225;DHT22;9237;48.590;8.854;2023-08-24T05:51:17;17.70;99.90
18225;DHT22;9237;48.590;8.854;2023-08-24T05:53:45;17.70;99.90
18225;DHT22;9237;48.590;8.854;2023-08-24T05:56:12;17.80;99.90
18225;DHT22;9237;48.590;8.854;2023-08-24T05:58:39;17.80;99.90
18225;DHT22;9237;48.590;8.854;2023-08-24T06:01:07;17.90;99.90
18225;DHT22;9237;48.590;8.854;2023-08-24T06:03:34;18.00;99.90
18225;DHT22;9237;48.590;8.854;2023-08-24T06:06:02;18.10;99.90
18225;DHT22;9237;48.590;8.854;2023-08-24T06:08:29;18.40;99.90
18225;DHT22;9237;48.590;8.854;2023-08-24T06:10:56;18.30;99.90
18225;DHT22;9237;48.590;8.854;2023-08-24T06:13:23;18.40;99.90
18225;DHT22;9237;48.590;8.854;2023-08-24T06:15:50;18.60;99.90
18225;DHT22;9237;48.590;8.854;2023-08-24T06:18:18;18.60;99.90
18225;DHT22;9237;48.590;8.854;2023-08-24T06:20:45;18.70;99.90
18225;DHT22;9237;48.590;8.854;2023-08-24T06:23:14;18.80;99.90
18225;DHT22;9237;48.590;8.854;2023-08-24T06:25:41;18.80;99.90
18225;DHT22;9237;48.590;8.854;2023-08-24T06:28:08;18.90;99.90
18225;DHT22;9237;48.590;8.854;2023-08-24T06:30:37;18.90;99.90
18225;DHT22;9237;48.590;8.854;2023-08-24T06:33:05;19.00;99.90
18225;DHT22;9237;48.590;8.854;2023-08-24T06:35:33;19.10;99.90
18225;DHT22;9237;48.590;8.854;2023-08-24T06:38:00;19.10;99.90
18225;DHT22;9237;48.590;8.854;2023-08-24T06:40:27;19.20;99.90
18225;DHT22;9237;48.590;8.854;2023-08-24T06:42:54;19.30;99.90
18225;DHT22;9237;48.590;8.854;2023-08-24T06:45:21;19.50;99.90
18225;DHT22;9237;48.590;8.854;2023-08-24T06:47:48;19.50;99.90
18225;DHT22;9237;48.590;8.854;2023-08-24T06:50:15;19.60;99.90
18225;DHT22;9237;48.590;8.854;2023-08-24T06:52:43;19.80;99.90
18225;DHT22;9237;48.590;8.854;2023-08-24T06:55:10;20.00;99.90
18225;DHT22;9237;48.590;8.854;2023-08-24T06:57:37;20.20;99.90
18225;DHT22;9237;48.590;8.854;2023-08-24T07:00:05;20.60;99.90
18225;DHT22;9237;48.590;8.854;2023-08-24T07:02:34;20.50;99.90
18225;DHT22;9237;48.590;8.854;2023-08-24T07:05:02;20.70;99.90
18225;DHT22;9237;48.590;8.854;2023-08-24T07:07:30;20.70;99.90
18225;DHT22;9237;48.590;8.854;2023-08-24T07:09:58;21.00;99.90
18225;DHT22;9237;48.590;8.854;2023-08-24T07:12:25;20.80;99.90
18225;DHT22;9237;48.590;8.854;2023-08-24T07:14:52;21.00;99.90
18225;DHT22;9237;48.590;8.854;2023-08-24T07:17:19;21.20;99.90
18225;DHT22;9237;48.590;8.854;2023-08-24T07:19:45;21.50;99.90
18225;DHT22;9237;48.590;8.854;2023-08-24T07:22:12;22.00;99.90
18225;DHT22;9237;48.590;8.854;2023-08-24T07:24:39;22.40;99.90
18225;DHT22;9237;48.590;8.854;2023-08-24T07:27:08;22.60;99.90
18225;DHT22;9237;48.590;8.854;2023-08-24T07:29:35;22.40;99.90
18225;DHT22;9237;48.590;8.854;2023-08-24T07:32:02;22.50;99.90
18225;DHT22;9237;48.590;8.854;2023-08-24T07:34:29;22.60;99.90
18225;DHT22;9237;48.590;8.854;2023-08-24T07:36:56;23.40;99.90
18225;DHT22;9237;48.590;8.854;2023-08-24T07:39:23;24.40;99.90
18225;DHT22;9237;48.590;8.854;2023-08-24T07:41:50;25.10;99.90
18225;DHT22;9237;48.590;8.854;2023-08-24T07:44:18;25.70;99.90
18225;DHT22;9237;48.590;8.854;2023-08-24T07:46:45;26.40;99.90
18225;DHT22;9237;48.590;8.854;2023-08-24T07:49:12;26.90;99.90
18225;DHT22;9237;48.590;8.854;2023-08-24T07:51:38;27.30;99.90
18225;DHT22;9237;48.590;8.854;2023-08-24T07:54:05;27.70;99.70
18225;DHT22;9237;48.590;8.854;2023-08-24T07:56:33;27.60;98.00
18225;DHT22;9237;48.590;8.854;2023-08-24T07:58:59;27.30;97.60
18225;DHT22;9237;48.590;8.854;2023-08-24T08:01:28;27.10;96.90
18225;DHT22;9237;48.590;8.854;2023-08-24T08:03:56;27.60;96.90
18225;DHT22;9237;48.590;8.854;2023-08-24T08:06:22;28.20;95.50
18225;DHT22;9237;48.590;8.854;2023-08-24T08:08:50;28.60;93.60
18225;DHT22;9237;48.590;8.854;2023-08-24T08:11:17;29.10;92.40
18225;DHT22;9237;48.590;8.854;2023-08-24T08:13:44;28.80;91.70
18225;DHT22;9237;48.590;8.854;2023-08-24T08:16:11;28.90;92.30
18225;DHT22;9237;48.590;8.854;2023-08-24T08:18:39;28.70;90.80
18225;DHT22;9237;48.590;8.854;2023-08-24T08:21:09;28.30;91.20
18225;DHT22;9237;48.590;8.854;2023-08-24T08:23:37;28.40;90.80
18225;DHT22;9237;48.590;8.854;2023-08-24T08:26:04;28.90;91.30
18225;DHT22;9237;48.590;8.854;2023-08-24T08:28:31;29.70;90.30
18225;DHT22;9237;48.590;8.854;2023-08-24T08:31:00;29.40;87.90
18225;DHT22;9237;48.590;8.854;2023-08-24T08:33:27;29.60;87.10
18225;DHT22;9237;48.590;8.854;2023-08-24T08:35:55;29.70;86.10
18225;DHT22;9237;48.590;8.854;2023-08-24T08:38:22;30.20;85.00
18225;DHT22;9237;48.590;8.854;2023-08-24T08:40:51;30.60;86.10
18225;DHT22;9237;48.590;8.854;2023-08-24T08:43:21;31.10;83.30
18225;DHT22;9237;48.590;8.854;2023-08-24T08:45:49;31.20;81.50
18225;DHT22;9237;48.590;8.854;2023-08-24T08:48:18;31.40;81.30
18225;DHT22;9237;48.590;8.854;2023-08-24T08:50:46;31.50;81.70
18225;DHT22;9237;48.590;8.854;2023-08-24T08:53:16;31.40;79.00
18225;DHT22;9237;48.590;8.854;2023-08-24T08:55:43;30.70;79.70
18225;DHT22;9237;48.590;8.854;2023-08-24T08:58:11;31.00;81.30
18225;DHT22;9237;48.590;8.854;2023-08-24T09:00:38;31.30;78.80
18225;DHT22;9237;48.590;8.854;2023-08-24T09:03:06;31.80;78.30
18225;DHT22;9237;48.590;8.854;2023-08-24T09:05:32;32.10;76.80
18225;DHT22;9237;48.590;8.854;2023-08-24T09:07:59;32.30;76.20
18225;DHT22;9237;48.590;8.854;2023-08-24T09:10:29;32.40;75.90
18225;DHT22;9237;48.590;8.854;2023-08-24T09:12:56;32.40;76.20
18225;DHT22;9237;48.590;8.854;2023-08-24T09:15:26;32.40;75.90
18225;DHT22;9237;48.590;8.854;2023-08-24T09:17:54;32.80;76.00
18225;DHT22;9237;48.590;8.854;2023-08-24T09:20:22;32.90;74.30
18225;DHT22;9237;48.590;8.854;2023-08-24T09:22:48;32.40;73.70
18225;DHT22;9237;48.590;8.854;2023-08-24T09:25:16;32.70;75.50
18225;DHT22;9237;48.590;8.854;2023-08-24T09:27:44;33.10;73.90
18225;DHT22;9237;48.590;8.854;2023-08-24T09:30:11;33.60;72.90
18225;DHT22;9237;48.590;8.854;2023-08-24T09:32:38;33.90;70.50
18225;DHT22;9237;48.590;8.854;2023-08-24T09:35:09;34.30;70.00
18225;DHT22;9237;48.590;8.854;2023-08-24T09:37:36;33.80;70.90
18225;DHT22;9237;48.590;8.854;2023-08-24T09:40:05;34.00;70.90
18225;DHT22;9237;48.590;8.854;2023-08-24T09:42:37;34.20;71.00
18225;DHT22;9237;48.590;8.854;2023-08-24T09:45:08;34.00;70.70
18225;DHT22;9237;48.590;8.854;2023-08-24T09:47:36;34.20;68.60
18225;DHT22;9237;48.590;8.854;2023-08-24T09:50:04;33.70;70.40
18225;DHT22;9237;48.590;8.854;2023-08-24T09:52:32;34.30;71.70
18225;DHT22;9237;48.590;8.854;2023-08-24T09:55:02;34.50;69.10
18225;DHT22;9237;48.590;8.854;2023-08-24T09:57:33;33.90;67.50
18225;DHT22;9237;48.590;8.854;2023-08-24T10:00:04;33.20;69.50
18225;DHT22;9237;48.590;8.854;2023-08-24T10:02:37;34.00;71.50
18225;DHT22;9237;48.590;8.854;2023-08-24T10:05:06;34.00;69.60
18225;DHT22;9237;48.590;8.854;2023-08-24T10:07:35;34.70;68.30
18225;DHT22;9237;48.590;8.854;2023-08-24T10:10:04;34.80;67.80
18225;DHT22;9237;48.590;8.854;2023-08-24T10:12:41;34.40;68.20
18225;DHT22;9237;48.590;8.854;2023-08-24T10:15:10;34.40;69.20
18225;DHT22;9237;48.590;8.854;2023-08-24T10:17:39;34.50;67.50
18225;DHT22;9237;48.590;8.854;2023-08-24T10:20:07;35.10;68.10
18225;DHT22;9237;48.590;8.854;2023-08-24T10:22:37;35.80;66.10
18225;DHT22;9237;48.590;8.854;2023-08-24T10:25:07;35.60;65.80
18225;DHT22;9237;48.590;8.854;2023-08-24T10:27:34;35.90;64.80
18225;DHT22;9237;48.590;8.854;2023-08-24T10:30:01;35.20;64.30
18225;DHT22;9237;48.590;8.854;2023-08-24T10:32:28;35.30;65.10
18225;DHT22;9237;48.590;8.854;2023-08-24T10:34:57;35.20;65.70
18225;DHT22;9237;48.590;8.854;2023-08-24T10:37:27;34.80;66.80
18225;DHT22;9237;48.590;8.854;2023-08-24T10:39:54;35.30;63.50
18225;DHT22;9237;48.590;8.854;2023-08-24T10:42:21;35.10;63.80
18225;DHT22;9237;48.590;8.854;2023-08-24T10:44:48;35.20;65.60
18225;DHT22;9237;48.590;8.854;2023-08-24T10:47:18;35.10;64.90
18225;DHT22;9237;48.590;8.854;2023-08-24T10:49:59;35.20;65.50
18225;DHT22;9237;48.590;8.854;2023-08-24T10:52:30;35.10;65.30
18225;DHT22;9237;48.590;8.854;2023-08-24T10:54:57;35.40;65.40
18225;DHT22;9237;48.590;8.854;2023-08-24T10:57:31;35.40;63.70
18225;DHT22;9237;48.590;8.854;2023-08-24T11:00:02;35.40;64.10
18225;DHT22;9237;48.590;8.854;2023-08-24T11:02:31;35.00;64.30
18225;DHT22;9237;48.590;8.854;2023-08-24T11:05:15;35.20;64.00
18225;DHT22;9237;48.590;8.854;2023-08-24T11:07:49;35.80;64.90
18225;DHT22;9237;48.590;8.854;2023-08-24T11:10:17;36.20;63.70
18225;DHT22;9237;48.590;8.854;2023-08-24T11:15:50;37.20;59.40
18225;DHT22;9237;48.590;8.854;2023-08-24T11:18:21;37.20;59.60
18225;DHT22;9237;48.590;8.854;2023-08-24T11:20:52;37.40;59.20
18225;DHT22;9237;48.590;8.854;2023-08-24T11:23:20;37.30;58.40
18225;DHT22;9237;48.590;8.854;2023-08-24T11:25:48;37.00;60.50
18225;DHT22;9237;48.590;8.854;2023-08-24T11:28:17;37.20;58.90
18225;DHT22;9237;48.590;8.854;2023-08-24T11:30:44;37.60;59.60
18225;DHT22;9237;48.590;8.854;2023-08-24T11:33:12;37.90;58.60
18225;DHT22;9237;48.590;8.854;2023-08-24T11:35:41;38.30;58.90
18225;DHT22;9237;48.590;8.854;2023-08-24T11:38:10;37.90;57.50
18225;DHT22;9237;48.590;8.854;2023-08-24T11:40:37;38.10;56.70
18225;DHT22;9237;48.590;8.854;2023-08-24T11:43:04;37.70;57.40
18225;DHT22;9237;48.590;8.854;2023-08-24T11:45:32;37.30;57.20
18225;DHT22;9237;48.590;8.854;2023-08-24T11:48:00;37.30;58.70
18225;DHT22;9237;48.590;8.854;2023-08-24T11:50:28;36.90;59.30
18225;DHT22;9237;48.590;8.854;2023-08-24T11:52:55;36.70;59.90
18225;DHT22;9237;48.590;8.854;2023-08-24T11:55:23;37.20;59.30
18225;DHT22;9237;48.590;8.854;2023-08-24T11:57:50;37.20;58.60
18225;DHT22;9237;48.590;8.854;2023-08-24T12:00:18;37.20;58.40
18225;DHT22;9237;48.590;8.854;2023-08-24T12:02:47;36.60;58.20
18225;DHT22;9237;48.590;8.854;2023-08-24T12:05:21;37.30;58.20
18225;DHT22;9237;48.590;8.854;2023-08-24T12:07:48;37.80;58.00
18225;DHT22;9237;48.590;8.854;2023-08-24T12:10:15;38.40;57.80
18225;DHT22;9237;48.590;8.854;2023-08-24T12:12:43;38.30;55.50
18225;DHT22;9237;48.590;8.854;2023-08-24T12:15:15;38.30;56.80
18225;DHT22;9237;48.590;8.854;2023-08-24T12:17:43;38.80;56.10
18225;DHT22;9237;48.590;8.854;2023-08-24T12:20:18;38.90;54.80
18225;DHT22;9237;48.590;8.854;2023-08-24T12:22:50;38.00;55.20
18225;DHT22;9237;48.590;8.854;2023-08-24T12:25:17;38.40;55.90
18225;DHT22;9237;48.590;8.854;2023-08-24T12:27:46;39.20;54.60
18225;DHT22;9237;48.590;8.854;2023-08-24T12:30:12;38.70;54.40
18225;DHT22;9237;48.590;8.854;2023-08-24T12:32:43;39.10;54.20
18225;DHT22;9237;48.590;8.854;2023-08-24T12:35:10;39.60;54.50
18225;DHT22;9237;48.590;8.854;2023-08-24T12:37:37;39.70;54.30
18225;DHT22;9237;48.590;8.854;2023-08-24T12:40:05;38.60;54.30
18225;DHT22;9237;48.590;8.854;2023-08-24T12:42:33;38.60;53.80
18225;DHT22;9237;48.590;8.854;2023-08-24T12:45:01;38.50;54.60
18225;DHT22;9237;48.590;8.854;2023-08-24T12:47:30;39.20;54.30
18225;DHT22;9237;48.590;8.854;2023-08-24T12:49:57;39.90;52.50
18225;DHT22;9237;48.590;8.854;2023-08-24T12:52:23;40.90;52.90
18225;DHT22;9237;48.590;8.854;2023-08-24T12:54:50;40.50;51.40
18225;DHT22;9237;48.590;8.854;2023-08-24T12:57:17;40.60;52.40
18225;DHT22;9237;48.590;8.854;2023-08-24T12:59:44;40.70;52.30
18225;DHT22;9237;48.590;8.854;2023-08-24T13:02:13;39.90;52.50
18225;DHT22;9237;48.590;8.854;2023-08-24T13:04:40;40.00;53.30
18225;DHT22;9237;48.590;8.854;2023-08-24T13:07:07;39.70;51.60
18225;DHT22;9237;48.590;8.854;2023-08-24T13:09:34;39.70;52.50
18225;DHT22;9237;48.590;8.854;2023-08-24T13:12:01;39.40;53.60
18225;DHT22;9237;48.590;8.854;2023-08-24T13:14:28;38.10;54.00
18225;DHT22;9237;48.590;8.854;2023-08-24T13:16:55;37.60;55.60
18225;DHT22;9237;48.590;8.854;2023-08-24T13:19:23;38.40;54.20
18225;DHT22;9237;48.590;8.854;2023-08-24T13:21:50;39.10;53.80
18225;DHT22;9237;48.590;8.854;2023-08-24T13:24:16;39.80;53.20
18225;DHT22;9237;48.590;8.854;2023-08-24T13:26:43;40.20;51.40
18225;DHT22;9237;48.590;8.854;2023-08-24T13:29:10;40.00;50.60
18225;DHT22;9237;48.590;8.854;2023-08-24T13:31:37;39.50;52.30
18225;DHT22;9237;48.590;8.854;2023-08-24T13:34:03;39.10;52.40
18225;DHT22;9237;48.590;8.854;2023-08-24T13:36:34;39.70;52.20
18225;DHT22;9237;48.590;8.854;2023-08-24T13:39:00;40.60;50.70
18225;DHT22;9237;48.590;8.854;2023-08-24T13:41:28;40.10;50.90
18225;DHT22;9237;48.590;8.854;2023-08-24T13:43:54;39.70;51.40
18225;DHT22;9237;48.590;8.854;2023-08-24T13:46:22;39.80;51.20
18225;DHT22;9237;48.590;8.854;2023-08-24T13:48:49;39.60;52.20
18225;DHT22;9237;48.590;8.854;2023-08-24T13:51:15;38.80;53.00
18225;DHT22;9237;48.590;8.854;2023-08-24T13:53:43;39.10;52.70
18225;DHT22;9237;48.590;8.854;2023-08-24T13:56:10;39.80;51.90
18225;DHT22;9237;48.590;8.854;2023-08-24T13:58:37;39.60;51.70
18225;DHT22;9237;48.590;8.854;2023-08-24T14:01:04;38.00;53.30
18225;DHT22;9237;48.590;8.854;2023-08-24T14:03:31;37.80;54.00
18225;DHT22;9237;48.590;8.854;2023-08-24T14:05:58;37.50;54.40
18225;DHT22;9237;48.590;8.854;2023-08-24T14:08:25;36.90;55.60
18225;DHT22;9237;48.590;8.854;2023-08-24T14:10:53;36.50;54.80
18225;DHT22;9237;48.590;8.854;2023-08-24T14:13:20;35.90;57.60
18225;DHT22;9237;48.590;8.854;2023-08-24T14:15:48;35.80;58.90
18225;DHT22;9237;48.590;8.854;2023-08-24T14:18:15;35.50;58.80
18225;DHT22;9237;48.590;8.854;2023-08-24T14:20:43;35.30;58.00
18225;DHT22;9237;48.590;8.854;2023-08-24T14:23:10;34.90;58.60
18225;DHT22;9237;48.590;8.854;2023-08-24T14:25:36;34.60;59.20
18225;DHT22;9237;48.590;8.854;2023-08-24T14:28:05;34.20;59.10
18225;DHT22;9237;48.590;8.854;2023-08-24T14:30:31;34.00;59.70
18225;DHT22;9237;48.590;8.854;2023-08-24T14:32:58;33.70;61.00
18225;DHT22;9237;48.590;8.854;2023-08-24T14:35:25;33.40;61.10
18225;DHT22;9237;48.590;8.854;2023-08-24T14:37:52;33.20;63.50
18225;DHT22;9237;48.590;8.854;2023-08-24T14:40:19;33.10;62.90
18225;DHT22;9237;48.590;8.854;2023-08-24T14:42:46;32.90;64.50
18225;DHT22;9237;48.590;8.854;2023-08-24T14:45:16;32.60;66.50
18225;DHT22;9237;48.590;8.854;2023-08-24T14:47:44;32.30;67.80
18225;DHT22;9237;48.590;8.854;2023-08-24T14:50:11;32.00;73.10
18225;DHT22;9237;48.590;8.854;2023-08-24T14:52:38;30.80;81.10
18225;DHT22;9237;48.590;8.854;2023-08-24T14:55:06;29.30;87.80
18225;DHT22;9237;48.590;8.854;2023-08-24T14:57:33;27.80;93.30
18225;DHT22;9237;48.590;8.854;2023-08-24T15:00:00;26.80;97.80
18225;DHT22;9237;48.590;8.854;2023-08-24T15:02:28;26.40;99.90
18225;DHT22;9237;48.590;8.854;2023-08-24T15:04:55;26.40;99.90
18225;DHT22;9237;48.590;8.854;2023-08-24T15:07:22;26.40;99.90
18225;DHT22;9237;48.590;8.854;2023-08-24T15:09:50;26.60;99.90
18225;DHT22;9237;48.590;8.854;2023-08-24T15:12:16;26.80;99.60
18225;DHT22;9237;48.590;8.854;2023-08-24T15:14:57;27.10;99.50
18225;DHT22;9237;48.590;8.854;2023-08-24T15:17:24;27.10;97.20
18225;DHT22;9237;48.590;8.854;2023-08-24T15:19:54;27.40;96.80
18225;DHT22;9237;48.590;8.854;2023-08-24T15:22:20;27.60;96.10
18225;DHT22;9237;48.590;8.854;2023-08-24T15:24:47;27.70;95.10
18225;DHT22;9237;48.590;8.854;2023-08-24T15:27:14;27.80;94.30
18225;DHT22;9237;48.590;8.854;2023-08-24T15:29:41;27.90;94.70
18225;DHT22;9237;48.590;8.854;2023-08-24T15:32:09;28.00;93.60
18225;DHT22;9237;48.590;8.854;2023-08-24T15:34:35;28.10;93.70
18225;DHT22;9237;48.590;8.854;2023-08-24T15:37:03;27.80;94.10
18225;DHT22;9237;48.590;8.854;2023-08-24T15:39:35;27.80;93.90
18225;DHT22;9237;48.590;8.854;2023-08-24T15:42:03;27.50;94.10
18225;DHT22;9237;48.590;8.854;2023-08-24T15:44:29;27.30;94.60
18225;DHT22;9237;48.590;8.854;2023-08-24T15:46:56;27.20;94.70
18225;DHT22;9237;48.590;8.854;2023-08-24T15:49:23;27.20;95.00
18225;DHT22;9237;48.590;8.854;2023-08-24T15:51:50;27.10;95.30